Aeroporto :
LOGIN :

Iscrizione | Disclaimer

   EN    FR    IT 

 










Sommario :    VFR   VFR Marginale   IFR   IFR Intensivo   IFR Molto Intensivo
Visibilità : 
Base nubi : 
>= 8 km
>= 3000ft
5 / 8 km
1000 / 3000 ft
1500m / 5 km
500 / 1000 ft
800 / 1500m
200 / 500 ft
< 800m
< 200 ft
Simboli :   Temporali  Nebbia  Neve Forte  Precipitazioni Forti  Vento > 20 kt
SIGMETs :   Varie  Temporali  Ghiacco  Turbolenza  Onda orograficha  Ceneri Vulcaniche






- Altitudine del aeroporto : 215 ft
- Codice IATA : ABZ


EGPD - Aberdeen / Dyce

ULTIMO METAR :
  • 050650Z AUTO 31017KT 9999 BKN018/// BKN025/// BKN043/// //////CB 08/04 Q0993 NOSIG

METARs OBSOLETI :
  • 050620Z AUTO 31014KT 9999 FEW016/// SCT031/// //////TCU 07/04 Q0993 NOSIG
  • 050550Z AUTO 30013KT 9999 FEW015/// SCT031/// //////CB 07/04 Q0993 NOSIG
  • 050520Z AUTO 30014KT 9999 FEW024/// //////TCU 06/04 Q0993 NOSIG
  • 050450Z AUTO 30012KT 9999 FEW019/// //////CB 06/04 Q0994 NOSIG
  • 050420Z AUTO 30012KT 9999 BKN018/// //////TCU 06/04 Q0994 NOSIG

TAF TAF EGPD
Valido dal 05 a 06 ore il 06 a 06 ore UTC


050455Z 0506/0606 30012KT 9999 SCT030
PROB40
TEMPO 0506/0512 6000 SHRA
PROB30
TEMPO 0506/0509 31015G25KT
BECMG 0509/0512 32020G30KT
PROB40
TEMPO 0511/0519 31027G42KT
TEMPO 0512/0521 6000 RA BKN012
PROB30
TEMPO 0514/0519 4000 +RA BKN007
BECMG 0519/0522 02020G30KT
PROB40
TEMPO 0521/0601 02023G40KT
PROB30
TEMPO 0521/0602 6000 RA BKN014



MetMap, La meteo Aeronautica in un colpo d'occhio ! - Copyright ORBIFLY Dicembre 2007 - Disclaimer

ORBIFLY MET'MAP TEAM :

Programmazione e sviluppo : Alexandra Zaïnal
Concezione : Baudouin d'Aumeries
Aiuto per la programmazione : Marc-Olivier Méhu
Supporto tecnico e logistico : Manuel Goepfert
Aiuto per la traduzione : Arnaldo La Scala

Contatto : metmap@orbifly.com




FONTI E CREDITI :

   NOAA